sensor_id;sensor_type;location;lat;lon;timestamp;P1;durP1;ratioP1;P2;durP2;ratioP2
22812;SDS011;11573;51.334;3.244;2023-05-29T00:02:17;34.75;;;5.97;;
22812;SDS011;11573;51.334;3.244;2023-05-29T00:04:44;27.45;;;5.32;;
22812;SDS011;11573;51.334;3.244;2023-05-29T00:07:11;24.90;;;5.15;;
22812;SDS011;11573;51.334;3.244;2023-05-29T00:09:38;21.27;;;5.47;;
22812;SDS011;11573;51.334;3.244;2023-05-29T00:12:05;33.55;;;6.65;;
22812;SDS011;11573;51.334;3.244;2023-05-29T00:14:32;27.30;;;5.90;;
22812;SDS011;11573;51.334;3.244;2023-05-29T00:16:59;32.35;;;6.40;;
22812;SDS011;11573;51.334;3.244;2023-05-29T00:19:27;30.10;;;5.90;;
22812;SDS011;11573;51.334;3.244;2023-05-29T00:21:54;23.85;;;5.93;;
22812;SDS011;11573;51.334;3.244;2023-05-29T00:24:23;31.30;;;5.45;;
22812;SDS011;11573;51.334;3.244;2023-05-29T00:26:50;22.60;;;5.00;;
22812;SDS011;11573;51.334;3.244;2023-05-29T00:29:17;29.67;;;7.05;;
22812;SDS011;11573;51.334;3.244;2023-05-29T00:31:44;22.00;;;6.07;;
22812;SDS011;11573;51.334;3.244;2023-05-29T00:34:11;26.02;;;5.07;;
22812;SDS011;11573;51.334;3.244;2023-05-29T00:36:38;27.77;;;5.40;;
22812;SDS011;11573;51.334;3.244;2023-05-29T00:39:06;26.30;;;5.32;;
22812;SDS011;11573;51.334;3.244;2023-05-29T00:41:33;26.45;;;5.53;;
22812;SDS011;11573;51.334;3.244;2023-05-29T00:44:00;25.08;;;5.63;;
22812;SDS011;11573;51.334;3.244;2023-05-29T00:46:27;22.63;;;4.93;;
22812;SDS011;11573;51.334;3.244;2023-05-29T00:48:55;36.45;;;6.05;;
22812;SDS011;11573;51.334;3.244;2023-05-29T00:51:22;26.27;;;5.43;;
22812;SDS011;11573;51.334;3.244;2023-05-29T00:53:49;25.60;;;4.85;;
22812;SDS011;11573;51.334;3.244;2023-05-29T00:56:17;28.08;;;6.15;;
22812;SDS011;11573;51.334;3.244;2023-05-29T00:58:50;26.27;;;5.63;;
22812;SDS011;11573;51.334;3.244;2023-05-29T01:01:18;29.05;;;5.20;;
22812;SDS011;11573;51.334;3.244;2023-05-29T01:03:45;25.42;;;4.90;;
22812;SDS011;11573;51.334;3.244;2023-05-29T01:06:15;28.55;;;5.60;;
22812;SDS011;11573;51.334;3.244;2023-05-29T01:08:43;21.27;;;5.15;;
22812;SDS011;11573;51.334;3.244;2023-05-29T01:13:58;28.58;;;5.93;;
22812;SDS011;11573;51.334;3.244;2023-05-29T01:16:32;27.40;;;5.43;;
22812;SDS011;11573;51.334;3.244;2023-05-29T01:19:24;25.13;;;6.28;;
22812;SDS011;11573;51.334;3.244;2023-05-29T01:24:48;25.02;;;5.28;;
22812;SDS011;11573;51.334;3.244;2023-05-29T01:27:19;26.67;;;4.60;;
22812;SDS011;11573;51.334;3.244;2023-05-29T01:29:51;22.42;;;4.63;;
22812;SDS011;11573;51.334;3.244;2023-05-29T01:32:21;27.88;;;5.90;;
22812;SDS011;11573;51.334;3.244;2023-05-29T01:34:49;19.80;;;5.00;;
22812;SDS011;11573;51.334;3.244;2023-05-29T01:37:16;28.20;;;5.88;;
22812;SDS011;11573;51.334;3.244;2023-05-29T01:39:43;26.33;;;5.45;;
22812;SDS011;11573;51.334;3.244;2023-05-29T01:42:10;16.10;;;4.20;;
22812;SDS011;11573;51.334;3.244;2023-05-29T01:44:38;19.33;;;4.18;;
22812;SDS011;11573;51.334;3.244;2023-05-29T01:47:05;19.27;;;3.50;;
22812;SDS011;11573;51.334;3.244;2023-05-29T01:49:33;22.90;;;4.50;;
22812;SDS011;11573;51.334;3.244;2023-05-29T01:52:03;19.45;;;4.57;;
22812;SDS011;11573;51.334;3.244;2023-05-29T01:54:30;17.00;;;4.60;;
22812;SDS011;11573;51.334;3.244;2023-05-29T01:56:57;18.25;;;4.60;;
22812;SDS011;11573;51.334;3.244;2023-05-29T01:59:25;22.35;;;4.85;;
22812;SDS011;11573;51.334;3.244;2023-05-29T02:01:53;14.77;;;3.67;;
22812;SDS011;11573;51.334;3.244;2023-05-29T02:04:20;21.23;;;4.40;;
22812;SDS011;11573;51.334;3.244;2023-05-29T02:06:47;17.35;;;4.18;;
22812;SDS011;11573;51.334;3.244;2023-05-29T02:09:15;19.17;;;4.05;;
22812;SDS011;11573;51.334;3.244;2023-05-29T02:11:43;20.80;;;3.97;;
22812;SDS011;11573;51.334;3.244;2023-05-29T02:14:12;13.57;;;4.07;;
22812;SDS011;11573;51.334;3.244;2023-05-29T02:16:39;19.65;;;3.70;;
22812;SDS011;11573;51.334;3.244;2023-05-29T02:19:07;17.40;;;4.15;;
22812;SDS011;11573;51.334;3.244;2023-05-29T02:21:37;17.55;;;3.65;;
22812;SDS011;11573;51.334;3.244;2023-05-29T02:24:04;12.52;;;3.60;;
22812;SDS011;11573;51.334;3.244;2023-05-29T02:26:33;28.15;;;4.78;;
22812;SDS011;11573;51.334;3.244;2023-05-29T02:29:02;17.30;;;4.30;;
22812;SDS011;11573;51.334;3.244;2023-05-29T02:31:33;18.10;;;4.32;;
22812;SDS011;11573;51.334;3.244;2023-05-29T02:34:00;14.23;;;4.10;;
22812;SDS011;11573;51.334;3.244;2023-05-29T02:36:27;23.55;;;5.53;;
22812;SDS011;11573;51.334;3.244;2023-05-29T02:38:56;23.00;;;5.05;;
22812;SDS011;11573;51.334;3.244;2023-05-29T02:41:24;16.15;;;4.05;;
22812;SDS011;11573;51.334;3.244;2023-05-29T02:43:51;16.75;;;4.05;;
22812;SDS011;11573;51.334;3.244;2023-05-29T02:46:20;14.75;;;3.63;;
22812;SDS011;11573;51.334;3.244;2023-05-29T02:48:48;23.92;;;5.35;;
22812;SDS011;11573;51.334;3.244;2023-05-29T02:51:15;23.88;;;4.50;;
22812;SDS011;11573;51.334;3.244;2023-05-29T02:53:42;26.40;;;4.55;;
22812;SDS011;11573;51.334;3.244;2023-05-29T02:56:09;23.20;;;4.07;;
22812;SDS011;11573;51.334;3.244;2023-05-29T02:58:36;21.92;;;4.95;;
22812;SDS011;11573;51.334;3.244;2023-05-29T03:01:03;22.27;;;5.32;;
22812;SDS011;11573;51.334;3.244;2023-05-29T03:03:31;19.15;;;4.57;;
22812;SDS011;11573;51.334;3.244;2023-05-29T03:05:58;21.70;;;4.53;;
22812;SDS011;11573;51.334;3.244;2023-05-29T03:08:26;21.40;;;5.57;;
22812;SDS011;11573;51.334;3.244;2023-05-29T03:10:54;12.93;;;3.67;;
22812;SDS011;11573;51.334;3.244;2023-05-29T03:13:22;21.63;;;4.07;;
22812;SDS011;11573;51.334;3.244;2023-05-29T03:15:55;19.90;;;4.47;;
22812;SDS011;11573;51.334;3.244;2023-05-29T03:18:24;20.55;;;4.47;;
22812;SDS011;11573;51.334;3.244;2023-05-29T03:20:51;18.25;;;4.05;;
22812;SDS011;11573;51.334;3.244;2023-05-29T03:23:18;18.70;;;4.57;;
22812;SDS011;11573;51.334;3.244;2023-05-29T03:25:46;23.80;;;4.88;;
22812;SDS011;11573;51.334;3.244;2023-05-29T03:28:13;21.30;;;4.93;;
22812;SDS011;11573;51.334;3.244;2023-05-29T03:30:40;25.05;;;4.28;;
22812;SDS011;11573;51.334;3.244;2023-05-29T03:33:11;26.98;;;4.75;;
22812;SDS011;11573;51.334;3.244;2023-05-29T03:36:00;25.02;;;4.40;;
22812;SDS011;11573;51.334;3.244;2023-05-29T03:38:27;23.27;;;3.90;;
22812;SDS011;11573;51.334;3.244;2023-05-29T03:40:57;20.33;;;4.78;;
22812;SDS011;11573;51.334;3.244;2023-05-29T03:43:24;29.05;;;4.63;;
22812;SDS011;11573;51.334;3.244;2023-05-29T03:45:51;16.95;;;4.47;;
22812;SDS011;11573;51.334;3.244;2023-05-29T03:48:19;28.17;;;4.85;;
22812;SDS011;11573;51.334;3.244;2023-05-29T03:50:47;22.73;;;4.63;;
22812;SDS011;11573;51.334;3.244;2023-05-29T03:53:19;21.90;;;4.15;;
22812;SDS011;11573;51.334;3.244;2023-05-29T03:55:46;23.75;;;4.03;;
22812;SDS011;11573;51.334;3.244;2023-05-29T03:58:13;22.48;;;4.75;;
22812;SDS011;11573;51.334;3.244;2023-05-29T04:00:40;24.63;;;5.10;;
22812;SDS011;11573;51.334;3.244;2023-05-29T04:03:08;22.35;;;5.15;;
22812;SDS011;11573;51.334;3.244;2023-05-29T04:05:35;29.55;;;5.47;;
22812;SDS011;11573;51.334;3.244;2023-05-29T04:08:02;24.88;;;4.95;;
22812;SDS011;11573;51.334;3.244;2023-05-29T04:10:41;26.65;;;4.88;;
22812;SDS011;11573;51.334;3.244;2023-05-29T04:13:08;20.17;;;4.63;;
22812;SDS011;11573;51.334;3.244;2023-05-29T04:15:35;20.90;;;4.55;;
22812;SDS011;11573;51.334;3.244;2023-05-29T04:18:02;19.55;;;4.00;;
22812;SDS011;11573;51.334;3.244;2023-05-29T04:20:29;21.35;;;3.70;;
22812;SDS011;11573;51.334;3.244;2023-05-29T04:22:57;23.92;;;5.18;;
22812;SDS011;11573;51.334;3.244;2023-05-29T04:25:24;23.98;;;4.78;;
22812;SDS011;11573;51.334;3.244;2023-05-29T04:27:51;25.38;;;4.18;;
22812;SDS011;11573;51.334;3.244;2023-05-29T04:30:19;26.35;;;4.97;;
22812;SDS011;11573;51.334;3.244;2023-05-29T04:32:47;25.50;;;5.03;;
22812;SDS011;11573;51.334;3.244;2023-05-29T04:35:15;23.00;;;3.97;;
22812;SDS011;11573;51.334;3.244;2023-05-29T04:37:53;18.48;;;3.95;;
22812;SDS011;11573;51.334;3.244;2023-05-29T04:40:20;27.45;;;4.57;;
22812;SDS011;11573;51.334;3.244;2023-05-29T04:42:49;17.25;;;4.30;;
22812;SDS011;11573;51.334;3.244;2023-05-29T04:45:19;27.40;;;4.88;;
22812;SDS011;11573;51.334;3.244;2023-05-29T04:47:47;21.85;;;4.05;;
22812;SDS011;11573;51.334;3.244;2023-05-29T04:50:16;23.45;;;4.78;;
22812;SDS011;11573;51.334;3.244;2023-05-29T04:52:43;28.02;;;4.60;;
22812;SDS011;11573;51.334;3.244;2023-05-29T04:55:10;19.35;;;3.58;;
22812;SDS011;11573;51.334;3.244;2023-05-29T04:57:38;23.60;;;4.80;;
22812;SDS011;11573;51.334;3.244;2023-05-29T05:00:08;20.63;;;4.00;;
22812;SDS011;11573;51.334;3.244;2023-05-29T05:02:38;27.42;;;4.78;;
22812;SDS011;11573;51.334;3.244;2023-05-29T05:05:05;21.27;;;4.07;;
22812;SDS011;11573;51.334;3.244;2023-05-29T05:07:32;23.30;;;5.65;;
22812;SDS011;11573;51.334;3.244;2023-05-29T05:10:00;21.55;;;4.53;;
22812;SDS011;11573;51.334;3.244;2023-05-29T05:12:27;28.85;;;4.90;;
22812;SDS011;11573;51.334;3.244;2023-05-29T05:14:54;25.08;;;5.07;;
22812;SDS011;11573;51.334;3.244;2023-05-29T05:17:21;23.95;;;4.45;;
22812;SDS011;11573;51.334;3.244;2023-05-29T05:19:48;23.48;;;4.30;;
22812;SDS011;11573;51.334;3.244;2023-05-29T05:22:15;15.13;;;4.00;;
22812;SDS011;11573;51.334;3.244;2023-05-29T05:24:42;25.05;;;4.60;;
22812;SDS011;11573;51.334;3.244;2023-05-29T05:27:09;26.00;;;5.55;;
22812;SDS011;11573;51.334;3.244;2023-05-29T05:29:37;20.10;;;4.60;;
22812;SDS011;11573;51.334;3.244;2023-05-29T05:32:05;22.92;;;4.88;;
22812;SDS011;11573;51.334;3.244;2023-05-29T05:34:33;17.38;;;3.70;;
22812;SDS011;11573;51.334;3.244;2023-05-29T05:37:00;21.30;;;4.68;;
22812;SDS011;11573;51.334;3.244;2023-05-29T05:39:29;20.13;;;4.22;;
22812;SDS011;11573;51.334;3.244;2023-05-29T05:41:56;15.82;;;4.00;;
22812;SDS011;11573;51.334;3.244;2023-05-29T05:44:42;17.52;;;4.65;;
22812;SDS011;11573;51.334;3.244;2023-05-29T05:47:11;25.90;;;4.88;;
22812;SDS011;11573;51.334;3.244;2023-05-29T05:49:38;24.02;;;5.22;;
22812;SDS011;11573;51.334;3.244;2023-05-29T05:52:06;21.85;;;4.85;;
22812;SDS011;11573;51.334;3.244;2023-05-29T05:54:33;23.63;;;4.15;;
22812;SDS011;11573;51.334;3.244;2023-05-29T05:57:01;20.75;;;3.97;;
22812;SDS011;11573;51.334;3.244;2023-05-29T05:59:31;16.58;;;3.63;;
22812;SDS011;11573;51.334;3.244;2023-05-29T06:01:57;26.35;;;4.05;;
22812;SDS011;11573;51.334;3.244;2023-05-29T06:04:25;19.25;;;4.07;;
22812;SDS011;11573;51.334;3.244;2023-05-29T06:06:52;19.23;;;4.20;;
22812;SDS011;11573;51.334;3.244;2023-05-29T06:09:19;16.05;;;3.97;;
22812;SDS011;11573;51.334;3.244;2023-05-29T06:11:49;22.30;;;4.13;;
22812;SDS011;11573;51.334;3.244;2023-05-29T06:14:16;18.17;;;4.13;;
22812;SDS011;11573;51.334;3.244;2023-05-29T06:16:43;18.80;;;4.72;;
22812;SDS011;11573;51.334;3.244;2023-05-29T06:19:10;23.13;;;4.43;;
22812;SDS011;11573;51.334;3.244;2023-05-29T06:21:50;21.88;;;4.70;;
22812;SDS011;11573;51.334;3.244;2023-05-29T06:24:17;20.38;;;4.05;;
22812;SDS011;11573;51.334;3.244;2023-05-29T06:26:45;24.10;;;4.95;;
22812;SDS011;11573;51.334;3.244;2023-05-29T06:29:13;21.88;;;4.82;;
22812;SDS011;11573;51.334;3.244;2023-05-29T06:31:39;17.95;;;4.43;;
22812;SDS011;11573;51.334;3.244;2023-05-29T06:34:07;16.25;;;4.65;;
22812;SDS011;11573;51.334;3.244;2023-05-29T06:36:34;19.77;;;5.25;;
22812;SDS011;11573;51.334;3.244;2023-05-29T06:39:01;17.02;;;4.45;;
22812;SDS011;11573;51.334;3.244;2023-05-29T06:41:28;22.73;;;4.32;;
22812;SDS011;11573;51.334;3.244;2023-05-29T06:43:55;24.83;;;4.95;;
22812;SDS011;11573;51.334;3.244;2023-05-29T06:46:22;14.48;;;4.65;;
22812;SDS011;11573;51.334;3.244;2023-05-29T06:48:49;26.50;;;5.78;;
22812;SDS011;11573;51.334;3.244;2023-05-29T06:51:17;21.27;;;5.50;;
22812;SDS011;11573;51.334;3.244;2023-05-29T06:53:44;20.67;;;5.55;;
22812;SDS011;11573;51.334;3.244;2023-05-29T06:56:12;20.98;;;5.63;;
22812;SDS011;11573;51.334;3.244;2023-05-29T06:58:43;23.92;;;5.70;;
22812;SDS011;11573;51.334;3.244;2023-05-29T07:01:13;19.92;;;5.25;;
22812;SDS011;11573;51.334;3.244;2023-05-29T07:03:54;28.15;;;5.63;;
22812;SDS011;11573;51.334;3.244;2023-05-29T07:06:22;19.50;;;5.00;;
22812;SDS011;11573;51.334;3.244;2023-05-29T07:08:49;22.23;;;5.57;;
22812;SDS011;11573;51.334;3.244;2023-05-29T07:11:16;18.15;;;4.07;;
22812;SDS011;11573;51.334;3.244;2023-05-29T07:13:43;22.02;;;5.25;;
22812;SDS011;11573;51.334;3.244;2023-05-29T07:16:10;21.23;;;4.72;;
22812;SDS011;11573;51.334;3.244;2023-05-29T07:18:55;31.17;;;6.17;;
22812;SDS011;11573;51.334;3.244;2023-05-29T07:21:22;20.85;;;4.80;;
22812;SDS011;11573;51.334;3.244;2023-05-29T07:23:49;25.40;;;5.75;;
22812;SDS011;11573;51.334;3.244;2023-05-29T07:26:16;19.70;;;4.38;;
22812;SDS011;11573;51.334;3.244;2023-05-29T07:28:43;17.17;;;5.68;;
22812;SDS011;11573;51.334;3.244;2023-05-29T07:31:10;18.88;;;5.32;;
22812;SDS011;11573;51.334;3.244;2023-05-29T07:33:39;15.82;;;4.97;;
22812;SDS011;11573;51.334;3.244;2023-05-29T07:36:07;18.77;;;5.05;;
22812;SDS011;11573;51.334;3.244;2023-05-29T07:38:34;13.82;;;3.92;;
22812;SDS011;11573;51.334;3.244;2023-05-29T07:41:01;20.13;;;4.38;;
22812;SDS011;11573;51.334;3.244;2023-05-29T07:43:35;15.20;;;3.88;;
22812;SDS011;11573;51.334;3.244;2023-05-29T07:46:05;17.50;;;4.05;;
22812;SDS011;11573;51.334;3.244;2023-05-29T07:48:35;14.95;;;3.92;;
22812;SDS011;11573;51.334;3.244;2023-05-29T07:51:02;16.63;;;4.32;;
22812;SDS011;11573;51.334;3.244;2023-05-29T07:53:34;20.63;;;4.45;;
22812;SDS011;11573;51.334;3.244;2023-05-29T07:56:02;12.75;;;4.10;;
22812;SDS011;11573;51.334;3.244;2023-05-29T07:58:30;19.10;;;5.22;;
22812;SDS011;11573;51.334;3.244;2023-05-29T08:00:58;18.02;;;4.25;;
22812;SDS011;11573;51.334;3.244;2023-05-29T08:03:25;25.52;;;5.18;;
22812;SDS011;11573;51.334;3.244;2023-05-29T08:06:12;20.52;;;4.60;;
22812;SDS011;11573;51.334;3.244;2023-05-29T08:08:39;13.20;;;4.22;;
22812;SDS011;11573;51.334;3.244;2023-05-29T08:11:06;29.25;;;4.75;;
22812;SDS011;11573;51.334;3.244;2023-05-29T08:13:33;24.70;;;4.45;;
22812;SDS011;11573;51.334;3.244;2023-05-29T08:16:00;16.73;;;4.63;;
22812;SDS011;11573;51.334;3.244;2023-05-29T08:18:29;17.52;;;4.18;;
22812;SDS011;11573;51.334;3.244;2023-05-29T08:20:57;19.80;;;4.30;;
22812;SDS011;11573;51.334;3.244;2023-05-29T08:23:25;29.48;;;5.10;;
22812;SDS011;11573;51.334;3.244;2023-05-29T08:25:52;20.17;;;4.45;;
22812;SDS011;11573;51.334;3.244;2023-05-29T08:28:20;18.48;;;4.43;;
22812;SDS011;11573;51.334;3.244;2023-05-29T08:30:48;15.98;;;3.72;;
22812;SDS011;11573;51.334;3.244;2023-05-29T08:33:14;22.83;;;4.47;;
22812;SDS011;11573;51.334;3.244;2023-05-29T08:35:42;22.23;;;4.35;;
22812;SDS011;11573;51.334;3.244;2023-05-29T08:38:09;15.45;;;3.65;;
22812;SDS011;11573;51.334;3.244;2023-05-29T08:40:36;17.42;;;3.58;;
22812;SDS011;11573;51.334;3.244;2023-05-29T08:43:14;19.67;;;4.30;;
22812;SDS011;11573;51.334;3.244;2023-05-29T08:45:44;16.20;;;3.90;;
22812;SDS011;11573;51.334;3.244;2023-05-29T08:48:12;19.05;;;4.95;;
22812;SDS011;11573;51.334;3.244;2023-05-29T08:50:43;22.63;;;4.63;;
22812;SDS011;11573;51.334;3.244;2023-05-29T08:53:13;22.48;;;4.05;;
22812;SDS011;11573;51.334;3.244;2023-05-29T08:55:41;16.27;;;3.67;;
22812;SDS011;11573;51.334;3.244;2023-05-29T08:58:09;18.80;;;3.70;;
22812;SDS011;11573;51.334;3.244;2023-05-29T09:00:37;19.10;;;4.03;;
22812;SDS011;11573;51.334;3.244;2023-05-29T09:03:07;20.52;;;4.55;;
22812;SDS011;11573;51.334;3.244;2023-05-29T09:05:34;26.15;;;4.25;;
22812;SDS011;11573;51.334;3.244;2023-05-29T09:08:06;19.05;;;4.03;;
22812;SDS011;11573;51.334;3.244;2023-05-29T09:10:35;22.55;;;4.95;;
22812;SDS011;11573;51.334;3.244;2023-05-29T09:13:04;19.15;;;4.30;;
22812;SDS011;11573;51.334;3.244;2023-05-29T09:15:32;24.58;;;5.18;;
22812;SDS011;11573;51.334;3.244;2023-05-29T09:18:00;19.38;;;4.03;;
22812;SDS011;11573;51.334;3.244;2023-05-29T09:20:27;25.65;;;5.00;;
22812;SDS011;11573;51.334;3.244;2023-05-29T09:22:59;24.35;;;4.38;;
22812;SDS011;11573;51.334;3.244;2023-05-29T09:25:27;25.77;;;5.07;;
22812;SDS011;11573;51.334;3.244;2023-05-29T09:30:36;23.50;;;5.18;;
22812;SDS011;11573;51.334;3.244;2023-05-29T09:33:05;21.38;;;4.60;;
22812;SDS011;11573;51.334;3.244;2023-05-29T09:35:37;24.85;;;4.93;;
22812;SDS011;11573;51.334;3.244;2023-05-29T09:38:09;33.70;;;5.28;;
22812;SDS011;11573;51.334;3.244;2023-05-29T09:40:54;29.98;;;5.35;;
22812;SDS011;11573;51.334;3.244;2023-05-29T09:43:25;20.92;;;5.38;;
22812;SDS011;11573;51.334;3.244;2023-05-29T09:45:51;18.35;;;4.43;;
22812;SDS011;11573;51.334;3.244;2023-05-29T09:48:22;37.35;;;5.15;;
22812;SDS011;11573;51.334;3.244;2023-05-29T09:50:50;33.15;;;5.78;;
22812;SDS011;11573;51.334;3.244;2023-05-29T09:53:17;22.73;;;4.72;;
22812;SDS011;11573;51.334;3.244;2023-05-29T09:55:51;34.75;;;5.50;;
22812;SDS011;11573;51.334;3.244;2023-05-29T09:58:19;26.98;;;4.90;;
22812;SDS011;11573;51.334;3.244;2023-05-29T10:00:47;26.63;;;4.30;;
22812;SDS011;11573;51.334;3.244;2023-05-29T10:03:15;31.70;;;6.25;;
22812;SDS011;11573;51.334;3.244;2023-05-29T10:05:47;24.75;;;4.90;;
22812;SDS011;11573;51.334;3.244;2023-05-29T10:08:19;29.52;;;5.72;;
22812;SDS011;11573;51.334;3.244;2023-05-29T10:10:48;26.15;;;5.53;;
22812;SDS011;11573;51.334;3.244;2023-05-29T10:13:20;24.35;;;4.85;;
22812;SDS011;11573;51.334;3.244;2023-05-29T10:15:51;29.02;;;4.72;;
22812;SDS011;11573;51.334;3.244;2023-05-29T10:18:23;24.80;;;5.80;;
22812;SDS011;11573;51.334;3.244;2023-05-29T10:20:52;19.75;;;4.97;;
22812;SDS011;11573;51.334;3.244;2023-05-29T10:23:24;17.60;;;4.70;;
22812;SDS011;11573;51.334;3.244;2023-05-29T10:25:53;25.13;;;4.80;;
22812;SDS011;11573;51.334;3.244;2023-05-29T10:28:26;21.08;;;4.63;;
22812;SDS011;11573;51.334;3.244;2023-05-29T10:31:07;24.73;;;4.95;;
22812;SDS011;11573;51.334;3.244;2023-05-29T10:36:28;28.13;;;4.57;;
22812;SDS011;11573;51.334;3.244;2023-05-29T10:39:02;29.60;;;4.95;;
22812;SDS011;11573;51.334;3.244;2023-05-29T10:41:29;27.10;;;4.68;;
22812;SDS011;11573;51.334;3.244;2023-05-29T10:43:59;26.73;;;4.57;;
22812;SDS011;11573;51.334;3.244;2023-05-29T10:49:20;24.52;;;4.90;;
22812;SDS011;11573;51.334;3.244;2023-05-29T10:51:48;38.55;;;5.95;;
22812;SDS011;11573;51.334;3.244;2023-05-29T10:54:15;21.15;;;4.78;;
22812;SDS011;11573;51.334;3.244;2023-05-29T10:56:52;23.65;;;4.88;;
22812;SDS011;11573;51.334;3.244;2023-05-29T10:59:22;28.25;;;5.28;;
22812;SDS011;11573;51.334;3.244;2023-05-29T11:01:54;23.00;;;5.05;;
22812;SDS011;11573;51.334;3.244;2023-05-29T11:06:53;24.02;;;5.28;;
22812;SDS011;11573;51.334;3.244;2023-05-29T11:14:47;26.58;;;4.50;;
22812;SDS011;11573;51.334;3.244;2023-05-29T11:17:29;21.25;;;4.25;;
22812;SDS011;11573;51.334;3.244;2023-05-29T11:19:56;19.15;;;5.07;;
22812;SDS011;11573;51.334;3.244;2023-05-29T11:22:27;18.33;;;4.03;;
22812;SDS011;11573;51.334;3.244;2023-05-29T11:25:00;21.70;;;4.53;;
22812;SDS011;11573;51.334;3.244;2023-05-29T11:27:27;40.53;;;6.32;;
22812;SDS011;11573;51.334;3.244;2023-05-29T11:29:56;30.50;;;5.20;;
22812;SDS011;11573;51.334;3.244;2023-05-29T11:32:24;28.08;;;5.13;;
22812;SDS011;11573;51.334;3.244;2023-05-29T11:34:54;26.83;;;5.05;;
22812;SDS011;11573;51.334;3.244;2023-05-29T11:37:25;27.05;;;5.22;;
22812;SDS011;11573;51.334;3.244;2023-05-29T11:39:52;27.80;;;5.00;;
22812;SDS011;11573;51.334;3.244;2023-05-29T11:42:19;33.53;;;4.85;;
22812;SDS011;11573;51.334;3.244;2023-05-29T11:44:46;25.98;;;5.15;;
22812;SDS011;11573;51.334;3.244;2023-05-29T11:47:13;31.15;;;5.00;;
22812;SDS011;11573;51.334;3.244;2023-05-29T11:49:41;24.60;;;6.20;;
22812;SDS011;11573;51.334;3.244;2023-05-29T11:52:12;32.72;;;5.50;;
22812;SDS011;11573;51.334;3.244;2023-05-29T11:54:45;25.23;;;4.05;;
22812;SDS011;11573;51.334;3.244;2023-05-29T11:57:19;32.15;;;5.57;;
22812;SDS011;11573;51.334;3.244;2023-05-29T11:59:47;18.10;;;4.53;;
22812;SDS011;11573;51.334;3.244;2023-05-29T12:02:19;20.27;;;4.22;;
22812;SDS011;11573;51.334;3.244;2023-05-29T12:05:02;29.38;;;4.32;;
22812;SDS011;11573;51.334;3.244;2023-05-29T12:07:31;28.13;;;5.30;;
22812;SDS011;11573;51.334;3.244;2023-05-29T12:10:14;20.25;;;4.00;;
22812;SDS011;11573;51.334;3.244;2023-05-29T12:12:47;30.02;;;5.20;;
22812;SDS011;11573;51.334;3.244;2023-05-29T12:15:15;22.70;;;4.78;;
22812;SDS011;11573;51.334;3.244;2023-05-29T12:17:44;21.65;;;4.25;;
22812;SDS011;11573;51.334;3.244;2023-05-29T12:20:12;29.55;;;5.13;;
22812;SDS011;11573;51.334;3.244;2023-05-29T12:22:41;23.17;;;5.32;;
22812;SDS011;11573;51.334;3.244;2023-05-29T12:27:38;29.65;;;5.65;;
22812;SDS011;11573;51.334;3.244;2023-05-29T12:30:10;25.75;;;4.75;;
22812;SDS011;11573;51.334;3.244;2023-05-29T12:32:49;24.70;;;5.18;;
22812;SDS011;11573;51.334;3.244;2023-05-29T12:37:46;25.95;;;5.65;;
22812;SDS011;11573;51.334;3.244;2023-05-29T12:42:47;30.70;;;4.93;;
22812;SDS011;11573;51.334;3.244;2023-05-29T12:45:17;33.75;;;5.40;;
22812;SDS011;11573;51.334;3.244;2023-05-29T12:47:44;21.02;;;4.28;;
22812;SDS011;11573;51.334;3.244;2023-05-29T12:50:19;22.75;;;4.75;;
22812;SDS011;11573;51.334;3.244;2023-05-29T12:55:21;31.65;;;5.75;;
22812;SDS011;11573;51.334;3.244;2023-05-29T12:57:48;32.33;;;5.20;;
22812;SDS011;11573;51.334;3.244;2023-05-29T13:00:15;34.70;;;6.03;;
22812;SDS011;11573;51.334;3.244;2023-05-29T13:02:43;29.85;;;5.43;;
22812;SDS011;11573;51.334;3.244;2023-05-29T13:05:11;26.50;;;5.25;;
22812;SDS011;11573;51.334;3.244;2023-05-29T13:07:38;29.15;;;5.93;;
22812;SDS011;11573;51.334;3.244;2023-05-29T13:10:05;33.47;;;6.22;;
22812;SDS011;11573;51.334;3.244;2023-05-29T13:12:32;34.22;;;5.65;;
22812;SDS011;11573;51.334;3.244;2023-05-29T13:15:00;37.50;;;6.57;;
22812;SDS011;11573;51.334;3.244;2023-05-29T13:17:27;32.58;;;5.85;;
22812;SDS011;11573;51.334;3.244;2023-05-29T13:19:54;33.30;;;7.00;;
22812;SDS011;11573;51.334;3.244;2023-05-29T13:22:21;32.25;;;5.97;;
22812;SDS011;11573;51.334;3.244;2023-05-29T13:24:48;44.50;;;6.30;;
22812;SDS011;11573;51.334;3.244;2023-05-29T13:27:15;28.30;;;6.80;;
22812;SDS011;11573;51.334;3.244;2023-05-29T13:29:43;43.13;;;7.38;;
22812;SDS011;11573;51.334;3.244;2023-05-29T13:32:10;30.70;;;5.78;;
22812;SDS011;11573;51.334;3.244;2023-05-29T13:34:37;34.50;;;6.90;;
22812;SDS011;11573;51.334;3.244;2023-05-29T13:37:04;30.70;;;6.43;;
22812;SDS011;11573;51.334;3.244;2023-05-29T13:39:31;35.10;;;7.03;;
22812;SDS011;11573;51.334;3.244;2023-05-29T13:41:58;37.78;;;6.45;;
22812;SDS011;11573;51.334;3.244;2023-05-29T13:44:25;38.20;;;7.03;;
22812;SDS011;11573;51.334;3.244;2023-05-29T13:46:52;46.75;;;7.25;;
22812;SDS011;11573;51.334;3.244;2023-05-29T13:49:19;39.85;;;7.00;;
22812;SDS011;11573;51.334;3.244;2023-05-29T13:51:46;33.35;;;5.95;;
22812;SDS011;11573;51.334;3.244;2023-05-29T13:54:15;32.70;;;6.40;;
22812;SDS011;11573;51.334;3.244;2023-05-29T13:56:44;36.20;;;6.93;;
22812;SDS011;11573;51.334;3.244;2023-05-29T13:59:12;30.20;;;6.25;;
22812;SDS011;11573;51.334;3.244;2023-05-29T14:01:39;31.88;;;6.50;;
22812;SDS011;11573;51.334;3.244;2023-05-29T14:04:07;45.42;;;7.90;;
22812;SDS011;11573;51.334;3.244;2023-05-29T14:06:34;35.97;;;7.90;;
22812;SDS011;11573;51.334;3.244;2023-05-29T14:09:03;39.25;;;6.78;;
22812;SDS011;11573;51.334;3.244;2023-05-29T14:11:30;38.90;;;7.13;;
22812;SDS011;11573;51.334;3.244;2023-05-29T14:13:57;34.53;;;6.38;;
22812;SDS011;11573;51.334;3.244;2023-05-29T14:16:24;37.17;;;6.93;;
22812;SDS011;11573;51.334;3.244;2023-05-29T14:18:51;34.40;;;6.45;;
22812;SDS011;11573;51.334;3.244;2023-05-29T14:21:18;38.40;;;6.55;;
22812;SDS011;11573;51.334;3.244;2023-05-29T14:23:47;39.33;;;7.25;;
22812;SDS011;11573;51.334;3.244;2023-05-29T14:26:14;43.63;;;8.40;;
22812;SDS011;11573;51.334;3.244;2023-05-29T14:28:41;45.30;;;7.32;;
22812;SDS011;11573;51.334;3.244;2023-05-29T14:31:08;39.58;;;6.80;;
22812;SDS011;11573;51.334;3.244;2023-05-29T14:33:35;43.35;;;8.02;;
22812;SDS011;11573;51.334;3.244;2023-05-29T14:36:03;38.33;;;6.93;;
22812;SDS011;11573;51.334;3.244;2023-05-29T14:38:30;38.80;;;7.25;;
22812;SDS011;11573;51.334;3.244;2023-05-29T14:40:57;36.33;;;7.05;;
22812;SDS011;11573;51.334;3.244;2023-05-29T14:43:35;33.85;;;7.03;;
22812;SDS011;11573;51.334;3.244;2023-05-29T14:46:03;39.65;;;6.75;;
22812;SDS011;11573;51.334;3.244;2023-05-29T14:48:30;46.17;;;7.28;;
22812;SDS011;11573;51.334;3.244;2023-05-29T14:50:57;33.92;;;6.38;;
22812;SDS011;11573;51.334;3.244;2023-05-29T14:53:24;46.78;;;7.53;;
22812;SDS011;11573;51.334;3.244;2023-05-29T14:55:51;36.50;;;6.78;;
22812;SDS011;11573;51.334;3.244;2023-05-29T14:58:19;45.60;;;7.57;;
22812;SDS011;11573;51.334;3.244;2023-05-29T15:00:46;41.45;;;7.93;;
22812;SDS011;11573;51.334;3.244;2023-05-29T15:03:13;35.85;;;6.20;;
22812;SDS011;11573;51.334;3.244;2023-05-29T15:05:40;47.10;;;8.25;;
22812;SDS011;11573;51.334;3.244;2023-05-29T15:08:07;42.20;;;8.38;;
22812;SDS011;11573;51.334;3.244;2023-05-29T15:10:34;38.08;;;7.32;;
22812;SDS011;11573;51.334;3.244;2023-05-29T15:13:01;41.58;;;7.38;;
22812;SDS011;11573;51.334;3.244;2023-05-29T15:15:30;36.67;;;7.15;;